createdAt,value
2019-01-17T00:00:11.216Z,8.67
2019-01-17T00:03:08.321Z,18.07
2019-01-17T00:06:08.484Z,10.73
2019-01-17T00:08:56.152Z,8.87
2019-01-17T00:11:53.778Z,9.10
2019-01-17T00:14:34.177Z,9.37
2019-01-17T00:17:17.605Z,9.53
2019-01-17T00:20:24.357Z,9.37
2019-01-17T00:23:27.862Z,8.93
2019-01-17T00:26:34.168Z,9.37
2019-01-17T00:29:31.849Z,10.40
2019-01-17T00:32:12.791Z,9.40
2019-01-17T00:35:03.925Z,10.40
2019-01-17T00:37:54.968Z,10.60
2019-01-17T00:44:04.872Z,8.80
2019-01-17T00:46:41.283Z,9.30
2019-01-17T00:49:28.738Z,8.70
2019-01-17T00:55:09.361Z,8.80
2019-01-17T01:01:15.417Z,8.97
2019-01-17T01:04:08.205Z,9.93
2019-01-17T01:10:01.413Z,9.27
2019-01-17T01:13:01.813Z,8.90
2019-01-17T01:15:58.514Z,9.03
2019-01-17T01:18:45.450Z,9.07
2019-01-17T01:21:46.128Z,9.23
2019-01-17T01:24:37.252Z,64.63
2019-01-17T01:27:55.100Z,11.33
2019-01-17T01:30:52.566Z,8.30
2019-01-17T01:33:35.892Z,8.77
2019-01-17T01:36:25.307Z,8.63
2019-01-17T01:39:12.608Z,9.00
2019-01-17T01:42:11.846Z,10.57
2019-01-17T01:44:59.121Z,8.53
2019-01-17T01:47:59.501Z,7.40
2019-01-17T01:50:55.302Z,7.30
2019-01-17T01:53:28.114Z,8.13
2019-01-17T01:55:57.396Z,10.57
2019-01-17T01:58:26.722Z,8.90
2019-01-17T02:00:56.024Z,8.37
2019-01-17T02:03:28.725Z,8.77
2019-01-17T02:06:00.317Z,9.40
2019-01-17T02:08:32.866Z,11.20
2019-01-17T02:11:02.289Z,9.40
2019-01-17T02:13:31.561Z,8.87
2019-01-17T02:16:07.034Z,9.20
2019-01-17T02:18:36.777Z,9.33
2019-01-17T02:21:12.721Z,9.23
2019-01-17T02:23:42.015Z,8.70
2019-01-17T02:26:11.306Z,9.13
2019-01-17T02:28:40.727Z,7.80
2019-01-17T02:31:10.037Z,8.53
2019-01-17T02:33:49.027Z,9.07
2019-01-17T02:36:18.240Z,9.43
2019-01-17T02:38:53.518Z,9.33
2019-01-17T02:41:23.875Z,8.83
2019-01-17T02:43:53.188Z,9.10
2019-01-17T02:46:22.491Z,9.57
2019-01-17T02:48:52.018Z,8.43
2019-01-17T02:51:26.691Z,10.23
2019-01-17T02:53:55.984Z,9.40
2019-01-17T02:56:34.244Z,7.47
2019-01-17T02:59:03.604Z,8.40
2019-01-17T03:01:32.967Z,7.70
2019-01-17T03:04:02.327Z,8.50
2019-01-17T03:06:32.072Z,8.40
2019-01-17T03:09:01.717Z,8.80
2019-01-17T03:11:31.108Z,8.47
2019-01-17T03:14:00.343Z,8.67
2019-01-17T03:16:31.784Z,8.53
2019-01-17T03:19:01.040Z,7.80
2019-01-17T03:21:31.590Z,8.93
2019-01-17T03:24:00.855Z,9.43
2019-01-17T03:26:30.294Z,9.30
2019-01-17T03:29:12.026Z,9.17
2019-01-17T03:31:41.319Z,8.63
2019-01-17T03:34:10.625Z,8.40
2019-01-17T03:36:49.268Z,8.10
2019-01-17T03:39:18.545Z,8.60
2019-01-17T03:41:47.903Z,8.50
2019-01-17T03:44:17.204Z,7.33
2019-01-17T03:46:48.643Z,7.63
2019-01-17T03:49:17.925Z,7.80
2019-01-17T03:51:50.605Z,7.33
2019-01-17T03:54:19.949Z,6.43
2019-01-17T03:56:51.490Z,6.63
2019-01-17T03:59:20.758Z,6.67
2019-01-17T04:01:50.210Z,7.10
2019-01-17T04:04:19.435Z,7.60
2019-01-17T04:06:48.832Z,7.83
2019-01-17T04:09:18.086Z,7.60
2019-01-17T04:11:47.532Z,8.33
2019-01-17T04:14:16.859Z,6.60
2019-01-17T04:16:46.497Z,6.30
2019-01-17T04:19:15.997Z,6.50
2019-01-17T04:21:45.410Z,6.13
2019-01-17T04:24:14.720Z,7.00
2019-01-17T04:26:44.128Z,6.63
2019-01-17T04:29:13.469Z,6.70
2019-01-17T04:31:42.873Z,7.27
2019-01-17T04:34:12.259Z,6.80
2019-01-17T04:36:41.648Z,6.93
2019-01-17T04:39:11.062Z,6.87
2019-01-17T04:41:40.328Z,6.40
2019-01-17T04:44:09.770Z,6.33
2019-01-17T04:46:39.027Z,7.10
2019-01-17T04:49:09.711Z,8.90
2019-01-17T04:51:39.041Z,7.57
2019-01-17T04:54:08.321Z,9.63
2019-01-17T04:56:37.805Z,8.00
2019-01-17T04:59:07.061Z,7.97
2019-01-17T05:01:36.515Z,8.70
2019-01-17T05:04:05.898Z,8.70
2019-01-17T05:06:35.644Z,8.47
2019-01-17T05:09:07.266Z,8.70
2019-01-17T05:11:36.707Z,8.47
2019-01-17T05:14:05.967Z,8.77
2019-01-17T05:16:37.745Z,9.37
2019-01-17T05:19:07.004Z,10.67
2019-01-17T05:21:36.299Z,12.00
2019-01-17T05:24:05.749Z,11.07
2019-01-17T05:26:34.989Z,9.30
2019-01-17T05:29:04.388Z,7.93
2019-01-17T05:31:33.634Z,7.83
2019-01-17T05:34:03.121Z,7.60
2019-01-17T05:36:33.138Z,7.83
2019-01-17T05:39:05.000Z,8.80
2019-01-17T05:41:35.709Z,8.13
2019-01-17T05:44:05.197Z,8.00
2019-01-17T05:46:34.650Z,10.93
2019-01-17T05:49:04.064Z,9.07
2019-01-17T05:51:33.329Z,7.97
2019-01-17T05:54:02.792Z,8.17
2019-01-17T05:56:32.082Z,9.57
2019-01-17T05:59:03.543Z,8.20
2019-01-17T06:01:33.906Z,11.97
2019-01-17T06:04:05.118Z,9.03
2019-01-17T06:06:34.429Z,9.00
2019-01-17T06:09:05.435Z,8.90
2019-01-17T06:11:34.836Z,8.43
2019-01-17T06:14:04.188Z,8.53
2019-01-17T06:16:33.692Z,9.17
2019-01-17T06:19:03.146Z,7.83
2019-01-17T06:21:32.852Z,8.47
2019-01-17T06:24:02.409Z,8.50
2019-01-17T06:26:32.167Z,8.90
2019-01-17T06:29:01.741Z,8.37
2019-01-17T06:31:31.421Z,10.03
2019-01-17T06:34:01.266Z,8.73
2019-01-17T06:36:30.512Z,9.53
2019-01-17T06:39:00.029Z,9.90
2019-01-17T06:41:29.332Z,9.60
2019-01-17T06:44:01.985Z,10.27
2019-01-17T06:46:31.247Z,11.10
2019-01-17T06:49:00.600Z,10.13
2019-01-17T06:51:29.864Z,10.37
2019-01-17T06:53:59.273Z,9.43
2019-01-17T06:56:28.610Z,9.80
2019-01-17T06:58:58.105Z,9.50
2019-01-17T07:01:27.401Z,9.40
2019-01-17T07:03:59.777Z,10.13
2019-01-17T07:06:30.514Z,10.00
2019-01-17T07:09:00.069Z,11.03
2019-01-17T07:11:29.606Z,9.50
2019-01-17T07:13:59.746Z,9.57
2019-01-17T07:16:29.105Z,9.30
2019-01-17T07:19:00.570Z,10.57
2019-01-17T07:21:29.998Z,10.27
2019-01-17T07:23:59.375Z,10.63
2019-01-17T07:26:28.895Z,10.60
2019-01-17T07:28:58.576Z,11.70
2019-01-17T07:31:30.254Z,11.50
2019-01-17T07:34:00.951Z,11.27
2019-01-17T07:36:30.578Z,12.53
2019-01-17T07:38:59.964Z,11.90
2019-01-17T07:41:31.572Z,11.40
2019-01-17T07:44:01.128Z,12.73
2019-01-17T07:46:30.547Z,14.70
2019-01-17T07:49:00.061Z,10.93
2019-01-17T07:51:29.660Z,10.40
2019-01-17T07:53:59.043Z,10.67
2019-01-17T07:56:28.377Z,10.50
2019-01-17T07:58:57.844Z,9.70
2019-01-17T08:01:27.221Z,10.57
2019-01-17T08:03:56.697Z,10.07
2019-01-17T08:06:26.059Z,10.57
2019-01-17T08:08:55.432Z,7.87
2019-01-17T08:11:24.775Z,9.57
2019-01-17T08:13:54.307Z,8.87
2019-01-17T08:16:23.754Z,7.33
2019-01-17T08:18:53.616Z,6.07
2019-01-17T08:21:24.112Z,4.10
2019-01-17T08:23:53.550Z,4.73
2019-01-17T08:26:22.848Z,4.40
2019-01-17T08:28:58.146Z,4.70
2019-01-17T08:31:27.447Z,5.23
2019-01-17T08:33:56.889Z,4.67
2019-01-17T08:36:26.172Z,4.07
2019-01-17T08:38:55.506Z,4.43
2019-01-17T08:41:25.390Z,4.90
2019-01-17T08:43:54.742Z,5.17
2019-01-17T08:46:24.195Z,5.63
2019-01-17T08:48:53.585Z,4.53
2019-01-17T08:51:22.824Z,5.57
2019-01-17T08:53:52.240Z,4.93
2019-01-17T08:56:21.660Z,8.10
2019-01-17T08:58:53.828Z,5.73
2019-01-17T09:01:26.639Z,5.77
2019-01-17T09:03:56.513Z,6.33
2019-01-17T09:06:25.958Z,5.77
2019-01-17T09:08:55.232Z,5.47
2019-01-17T09:11:25.646Z,5.13
2019-01-17T09:13:55.000Z,4.93
2019-01-17T09:16:24.384Z,4.80
2019-01-17T09:18:53.718Z,4.80
2019-01-17T09:21:23.050Z,5.00
2019-01-17T09:23:52.406Z,6.43
2019-01-17T09:26:21.717Z,7.53
2019-01-17T09:28:57.405Z,4.70
2019-01-17T09:31:26.730Z,5.90
2019-01-17T09:33:56.914Z,5.00
2019-01-17T09:36:26.745Z,4.50
2019-01-17T09:38:58.043Z,4.40
2019-01-17T09:41:30.226Z,3.77
2019-01-17T09:44:10.998Z,4.20
2019-01-17T09:46:42.445Z,4.17
2019-01-17T09:49:14.278Z,4.67
2019-01-17T09:51:44.755Z,4.20
2019-01-17T09:54:14.199Z,4.15
2019-01-17T09:56:43.552Z,4.70
2019-01-17T09:59:13.005Z,4.20
2019-01-17T10:01:42.455Z,4.08
2019-01-17T10:04:11.845Z,3.63
2019-01-17T10:06:41.094Z,4.60
2019-01-17T10:09:10.484Z,4.00
2019-01-17T10:11:39.856Z,5.13
2019-01-17T10:14:12.617Z,4.73
2019-01-17T10:16:59.213Z,6.03
2019-01-17T10:19:57.992Z,5.10
2019-01-17T10:23:05.761Z,4.60
2019-01-17T10:26:04.092Z,4.70
2019-01-17T10:29:29.915Z,6.53
2019-01-17T10:32:20.861Z,4.60
2019-01-17T10:35:21.298Z,4.80
2019-01-17T10:38:47.360Z,3.77
2019-01-17T10:41:44.470Z,4.50
2019-01-17T10:44:35.616Z,5.27
2019-01-17T10:47:41.637Z,3.60
2019-01-17T10:50:41.007Z,9.77
2019-01-17T10:53:57.800Z,10.30
2019-01-17T10:56:53.418Z,9.67
2019-01-17T10:59:46.719Z,11.30
2019-01-17T11:02:53.140Z,12.03
2019-01-17T11:06:16.391Z,11.60
2019-01-17T11:09:32.478Z,14.13
2019-01-17T11:12:45.569Z,15.10
2019-01-17T11:15:59.133Z,14.57
2019-01-17T11:18:51.693Z,16.17
2019-01-17T11:22:10.096Z,15.30
2019-01-17T11:25:24.615Z,15.43
2019-01-17T11:28:13.512Z,16.13
2019-01-17T11:31:26.189Z,16.77
2019-01-17T11:34:50.860Z,16.23
2019-01-17T11:38:03.933Z,16.57
2019-01-17T11:41:02.714Z,15.13
2019-01-17T11:44:34.712Z,15.40
2019-01-17T11:47:39.028Z,14.37
2019-01-17T11:51:01.492Z,14.80
2019-01-17T11:54:02.261Z,17.83
2019-01-17T11:57:16.714Z,16.07
2019-01-17T12:00:27.920Z,16.83
2019-01-17T12:03:32.712Z,14.57
2019-01-17T12:06:02.467Z,14.10
2019-01-17T12:08:31.886Z,13.57
2019-01-17T12:11:02.005Z,13.03
2019-01-17T12:13:31.423Z,14.13
2019-01-17T12:16:00.694Z,14.10
2019-01-17T12:18:30.236Z,13.00
2019-01-17T12:20:59.571Z,12.87
2019-01-17T12:23:32.249Z,12.63
2019-01-17T12:26:03.919Z,12.20
2019-01-17T12:28:33.521Z,11.87
2019-01-17T12:31:02.981Z,11.20
2019-01-17T12:33:33.175Z,10.30
2019-01-17T12:36:02.606Z,10.03
2019-01-17T12:38:31.962Z,10.40
2019-01-17T12:41:01.957Z,11.40
2019-01-17T12:43:32.389Z,10.73
2019-01-17T12:46:01.763Z,10.47
2019-01-17T12:48:31.296Z,10.53
2019-01-17T12:51:00.738Z,10.33
2019-01-17T12:53:30.357Z,10.97
2019-01-17T12:55:59.766Z,9.47
2019-01-17T12:58:29.018Z,9.73
2019-01-17T13:00:58.586Z,8.47
2019-01-17T13:03:27.893Z,8.23
2019-01-17T13:05:58.308Z,8.93
2019-01-17T13:08:27.606Z,8.30
2019-01-17T13:10:57.165Z,7.40
2019-01-17T13:13:26.650Z,7.50
2019-01-17T13:15:56.025Z,7.63
2019-01-17T13:18:25.592Z,6.63
2019-01-17T13:20:54.870Z,6.77
2019-01-17T13:23:24.277Z,6.00
2019-01-17T13:25:53.826Z,5.60
2019-01-17T13:28:23.186Z,6.20
2019-01-17T13:30:52.824Z,6.67
2019-01-17T13:33:22.107Z,6.37
2019-01-17T13:35:53.413Z,6.37
2019-01-17T13:38:22.989Z,5.63
2019-01-17T13:40:52.573Z,5.47
2019-01-17T13:43:21.976Z,4.80
2019-01-17T13:45:51.675Z,4.63
2019-01-17T13:48:24.120Z,5.43
2019-01-17T13:50:53.493Z,5.43
2019-01-17T13:53:22.997Z,4.77
2019-01-17T13:55:52.552Z,5.17
2019-01-17T13:58:21.868Z,5.10
2019-01-17T14:00:52.985Z,5.47
2019-01-17T14:03:22.362Z,4.77
2019-01-17T14:05:51.854Z,4.90
2019-01-17T14:08:21.176Z,4.93
2019-01-17T14:10:51.121Z,4.90
2019-01-17T14:13:20.407Z,5.30
2019-01-17T14:15:49.814Z,5.17
2019-01-17T14:18:20.678Z,5.13
2019-01-17T14:20:50.161Z,6.03
2019-01-17T14:23:20.680Z,5.60
2019-01-17T14:25:49.994Z,5.73
2019-01-17T14:28:20.391Z,5.50
2019-01-17T14:30:49.756Z,6.27
2019-01-17T14:33:21.082Z,6.60
2019-01-17T14:35:50.831Z,6.50
2019-01-17T14:38:21.582Z,8.20
2019-01-17T14:40:51.147Z,7.20
2019-01-17T14:43:20.803Z,6.60
2019-01-17T14:45:50.170Z,7.47
2019-01-17T14:48:19.719Z,7.43
2019-01-17T14:50:49.177Z,7.60
2019-01-17T14:53:18.568Z,7.83
2019-01-17T14:55:48.263Z,7.40
2019-01-17T14:58:17.949Z,7.63
2019-01-17T15:00:47.353Z,7.07
2019-01-17T15:03:18.874Z,7.20
2019-01-17T15:05:48.365Z,7.53
2019-01-17T15:08:17.743Z,7.47
2019-01-17T15:10:47.103Z,6.83
2019-01-17T15:13:16.576Z,7.30
2019-01-17T15:15:45.942Z,6.60
2019-01-17T15:18:15.768Z,7.70
2019-01-17T15:20:45.114Z,7.03
2019-01-17T15:23:14.971Z,8.23
2019-01-17T15:25:44.418Z,7.57
2019-01-17T15:28:13.992Z,7.07
2019-01-17T15:30:43.469Z,6.70
2019-01-17T15:33:12.826Z,7.30
2019-01-17T15:35:42.102Z,7.30
2019-01-17T15:38:11.629Z,6.87
2019-01-17T15:40:41.075Z,7.50
2019-01-17T15:43:10.582Z,6.40
2019-01-17T15:45:40.011Z,7.60
2019-01-17T15:48:09.468Z,8.23
2019-01-17T15:50:38.712Z,8.38
2019-01-17T15:53:08.121Z,8.37
2019-01-17T15:55:38.516Z,8.33
2019-01-17T15:58:07.996Z,8.90
2019-01-17T16:00:37.453Z,8.57
2019-01-17T16:03:06.811Z,9.17
2019-01-17T16:05:36.365Z,10.83
2019-01-17T16:08:07.478Z,9.57
2019-01-17T16:10:36.781Z,9.53
2019-01-17T16:13:07.534Z,9.23
2019-01-17T16:15:36.900Z,9.30
2019-01-17T16:18:06.765Z,9.57
2019-01-17T16:20:36.129Z,10.53
2019-01-17T16:23:05.611Z,11.00
2019-01-17T16:25:35.169Z,9.90
2019-01-17T16:28:04.530Z,10.87
2019-01-17T16:30:34.561Z,16.43
2019-01-17T16:33:03.824Z,10.90
2019-01-17T16:35:34.285Z,12.17
2019-01-17T16:38:03.805Z,11.50
2019-01-17T16:40:33.290Z,11.03
2019-01-17T16:43:04.518Z,9.77
2019-01-17T16:45:35.603Z,12.50
2019-01-17T16:48:05.132Z,12.37
2019-01-17T16:50:34.385Z,13.90
2019-01-17T16:53:03.833Z,10.80
2019-01-17T16:55:33.701Z,13.40
2019-01-17T16:58:03.258Z,14.17
2019-01-17T17:00:42.773Z,14.43
2019-01-17T17:03:12.050Z,12.80
2019-01-17T17:05:41.990Z,15.20
2019-01-17T17:08:11.371Z,17.33
2019-01-17T17:10:41.970Z,21.13
2019-01-17T17:13:11.395Z,16.90
2019-01-17T17:15:40.864Z,18.67
2019-01-17T17:18:10.342Z,16.37
2019-01-17T17:20:40.124Z,15.80
2019-01-17T17:23:10.497Z,18.00
2019-01-17T17:25:39.857Z,18.03
2019-01-17T17:28:09.268Z,20.10
2019-01-17T17:30:38.713Z,17.50
2019-01-17T17:33:08.066Z,18.57
2019-01-17T17:35:37.430Z,19.43
2019-01-17T17:38:06.752Z,18.13
2019-01-17T17:40:38.098Z,19.00
2019-01-17T17:43:07.370Z,19.30
2019-01-17T17:45:36.873Z,18.40
2019-01-17T17:48:06.869Z,19.43
2019-01-17T17:50:36.254Z,20.50
2019-01-17T17:53:06.836Z,18.33
2019-01-17T17:55:36.326Z,17.13
2019-01-17T17:58:05.696Z,16.07
2019-01-17T18:00:46.056Z,17.10
2019-01-17T18:03:15.577Z,19.00
2019-01-17T18:05:46.012Z,18.97
2019-01-17T18:08:15.510Z,17.83
2019-01-17T18:10:44.793Z,16.50
2019-01-17T18:13:14.188Z,14.83
2019-01-17T18:15:43.486Z,14.53
2019-01-17T18:18:13.238Z,13.20
2019-01-17T18:20:42.509Z,13.83
2019-01-17T18:23:12.030Z,13.13
2019-01-17T18:25:41.281Z,13.53
2019-01-17T18:28:10.668Z,13.13
2019-01-17T18:30:40.102Z,13.87
2019-01-17T18:33:09.524Z,15.50
2019-01-17T18:35:40.617Z,15.33
2019-01-17T18:38:10.285Z,16.47
2019-01-17T18:40:40.739Z,16.93
2019-01-17T18:43:10.047Z,13.57
2019-01-17T18:45:43.586Z,12.57
2019-01-17T18:48:13.000Z,12.83
2019-01-17T18:50:42.389Z,12.40
2019-01-17T18:53:11.988Z,11.80
2019-01-17T18:55:41.468Z,11.17
2019-01-17T18:58:15.542Z,10.73
2019-01-17T19:00:42.049Z,11.73
2019-01-17T19:03:11.813Z,12.10
2019-01-17T19:05:41.126Z,12.20
2019-01-17T19:08:15.864Z,11.53
2019-01-17T19:10:45.476Z,10.07
2019-01-17T19:13:16.358Z,7.60
2019-01-17T19:15:46.149Z,8.23
2019-01-17T19:18:16.676Z,8.03
2019-01-17T19:20:50.367Z,7.73
2019-01-17T19:23:21.588Z,7.43
2019-01-17T19:25:52.461Z,8.33
2019-01-17T19:28:24.175Z,7.10
2019-01-17T19:30:53.989Z,8.77
2019-01-17T19:33:24.041Z,7.60
2019-01-17T19:35:53.343Z,8.93
2019-01-17T19:38:22.812Z,9.03
2019-01-17T19:40:52.107Z,9.23
2019-01-17T19:43:22.215Z,8.73
2019-01-17T19:45:51.515Z,8.33
2019-01-17T19:48:20.766Z,6.93
2019-01-17T19:50:50.294Z,6.97
2019-01-17T19:53:19.628Z,6.73
2019-01-17T19:55:49.444Z,7.17
2019-01-17T19:58:18.883Z,6.57
2019-01-17T20:00:48.218Z,6.77
2019-01-17T20:03:18.118Z,6.50
2019-01-17T20:05:47.482Z,6.53
2019-01-17T20:08:16.876Z,6.13
2019-01-17T20:10:47.384Z,6.60
2019-01-17T20:13:16.729Z,6.70
2019-01-17T20:15:46.146Z,6.10
2019-01-17T20:18:15.417Z,6.00
2019-01-17T20:20:45.852Z,6.33
2019-01-17T20:23:15.464Z,6.60
2019-01-17T20:25:44.753Z,5.73
2019-01-17T20:28:14.182Z,5.80
2019-01-17T20:30:44.306Z,5.90
2019-01-17T20:33:13.713Z,5.80
2019-01-17T20:35:43.070Z,6.10
2019-01-17T20:38:12.356Z,6.37
2019-01-17T20:40:41.817Z,5.67
2019-01-17T20:43:11.204Z,5.40
2019-01-17T20:45:40.923Z,5.40
2019-01-17T20:48:10.273Z,5.30
2019-01-17T20:50:39.804Z,5.57
2019-01-17T20:53:09.097Z,5.70
2019-01-17T20:55:38.510Z,5.63
2019-01-17T20:58:08.046Z,6.07
2019-01-17T21:01:18.053Z,5.07
2019-01-17T21:03:48.037Z,5.50
2019-01-17T21:06:17.469Z,5.80
2019-01-17T21:08:46.789Z,5.67
2019-01-17T21:11:16.419Z,4.77
2019-01-17T21:13:46.844Z,5.53
2019-01-17T21:16:18.552Z,5.37
2019-01-17T21:18:47.846Z,4.90
2019-01-17T21:21:17.218Z,4.47
2019-01-17T21:23:46.482Z,4.20
2019-01-17T21:26:17.592Z,3.67
2019-01-17T21:28:49.149Z,3.47
2019-01-17T21:31:19.386Z,2.83
2019-01-17T21:33:49.507Z,3.23
2019-01-17T21:36:19.895Z,2.70
2019-01-17T21:38:49.217Z,2.60
2019-01-17T21:41:18.638Z,3.00
2019-01-17T21:43:48.595Z,2.57
2019-01-17T21:46:18.015Z,2.37
2019-01-17T21:48:47.318Z,2.63
2019-01-17T21:51:16.994Z,2.57
2019-01-17T21:53:46.280Z,2.37
2019-01-17T21:56:15.864Z,2.20
2019-01-17T21:58:45.268Z,2.20
2019-01-17T22:01:14.854Z,2.00
2019-01-17T22:03:44.095Z,1.80
2019-01-17T22:06:13.885Z,2.13
2019-01-17T22:08:43.322Z,1.60
2019-01-17T22:11:12.585Z,1.70
2019-01-17T22:13:42.095Z,1.80
2019-01-17T22:16:11.454Z,1.90
2019-01-17T22:18:40.893Z,2.43
2019-01-17T22:21:11.155Z,1.60
2019-01-17T22:23:41.242Z,2.00
2019-01-17T22:26:10.768Z,2.17
2019-01-17T22:28:40.370Z,1.57
2019-01-17T22:31:09.921Z,1.37
2019-01-17T22:33:39.224Z,1.30
2019-01-17T22:36:08.764Z,1.50
2019-01-17T22:38:38.087Z,1.40
2019-01-17T22:41:07.764Z,1.47
2019-01-17T22:43:37.121Z,1.00
2019-01-17T22:46:06.635Z,1.30
2019-01-17T22:48:35.947Z,1.00
2019-01-17T22:51:05.405Z,1.20
2019-01-17T22:53:34.647Z,1.20
2019-01-17T22:56:04.432Z,1.50
2019-01-17T22:58:33.667Z,1.10
2019-01-17T23:01:19.874Z,1.40
2019-01-17T23:03:50.276Z,1.10
2019-01-17T23:06:21.640Z,1.10
2019-01-17T23:08:50.958Z,1.20
2019-01-17T23:11:20.414Z,1.30
2019-01-17T23:13:49.997Z,1.60
2019-01-17T23:16:19.452Z,1.20
2019-01-17T23:18:48.775Z,1.20
2019-01-17T23:21:18.278Z,1.30
2019-01-17T23:23:47.508Z,1.27
2019-01-17T23:26:17.478Z,1.30
2019-01-17T23:28:47.722Z,1.00
2019-01-17T23:31:17.035Z,1.30
2019-01-17T23:33:46.640Z,1.10
2019-01-17T23:36:16.042Z,1.10
2019-01-17T23:38:47.062Z,0.80
2019-01-17T23:41:17.466Z,1.10
2019-01-17T23:43:46.750Z,1.10
2019-01-17T23:46:16.301Z,1.30
2019-01-17T23:48:45.620Z,1.07
2019-01-17T23:51:15.008Z,1.10
2019-01-17T23:53:44.351Z,0.80
2019-01-17T23:56:14.833Z,1.10
2019-01-17T23:58:44.046Z,0.90
